createdAt,value
2023-09-18T00:01:01.369Z,100924.47
2023-09-18T00:03:28.079Z,100921.75
2023-09-18T00:05:54.714Z,100915.41
2023-09-18T00:08:21.516Z,100912.00
2023-09-18T00:10:50.234Z,100918.56
2023-09-18T00:13:16.815Z,100921.31
2023-09-18T00:15:45.084Z,100921.31
2023-09-18T00:18:12.117Z,100919.63
2023-09-18T00:20:38.713Z,100914.31
2023-09-18T00:23:05.409Z,100912.84
2023-09-18T00:25:31.964Z,100916.63
2023-09-18T00:27:58.700Z,100915.78
2023-09-18T00:30:25.283Z,100909.69
2023-09-18T00:32:53.372Z,100908.00
2023-09-18T00:35:20.091Z,100905.66
2023-09-18T00:37:46.776Z,100897.63
2023-09-18T00:40:13.792Z,100896.97
2023-09-18T00:42:40.340Z,100893.41
2023-09-18T00:45:07.918Z,100884.72
2023-09-18T00:47:34.956Z,100890.22
2023-09-18T00:50:04.851Z,100888.75
2023-09-18T00:52:32.826Z,100895.28
2023-09-18T00:54:59.412Z,100895.50
2023-09-18T00:57:26.025Z,100894.00
2023-09-18T00:59:52.620Z,100889.78
2023-09-18T01:02:19.319Z,100886.38
2023-09-18T01:04:46.436Z,100883.84
2023-09-18T01:07:14.397Z,100877.72
2023-09-18T01:09:41.565Z,100881.75
2023-09-18T01:12:18.439Z,100874.56
2023-09-18T01:14:55.795Z,100885.72
2023-09-18T01:17:23.402Z,100878.78
2023-09-18T01:19:50.003Z,100882.75
2023-09-18T01:22:19.659Z,100883.16
2023-09-18T01:24:48.514Z,100884.44
2023-09-18T01:27:16.639Z,100879.16
2023-09-18T01:29:43.365Z,100874.91
2023-09-18T01:32:10.195Z,100873.22
2023-09-18T01:34:38.863Z,100871.53
2023-09-18T01:37:06.695Z,100873.63
2023-09-18T01:39:35.252Z,100873.00
2023-09-18T01:42:05.072Z,100869.59
2023-09-18T01:44:32.522Z,100875.50
2023-09-18T01:47:00.199Z,100876.53
2023-09-18T01:49:31.115Z,100872.09
2023-09-18T01:51:58.126Z,100864.28
2023-09-18T01:54:24.847Z,100851.84
2023-09-18T01:56:51.589Z,100843.81
2023-09-18T01:59:20.954Z,100827.78
2023-09-18T02:01:48.335Z,100824.38
2023-09-18T02:04:46.089Z,100827.13
2023-09-18T02:07:02.117Z,100821.00
2023-09-18T02:09:28.785Z,100820.16
2023-09-18T02:11:55.403Z,100814.88
2023-09-18T02:14:23.431Z,100812.97
2023-09-18T02:16:50.088Z,100802.22
2023-09-18T02:19:16.675Z,100804.94
2023-09-18T02:21:43.542Z,100799.69
2023-09-18T02:24:10.349Z,100803.47
2023-09-18T02:26:37.042Z,100806.41
2023-09-18T02:29:07.439Z,100802.00
2023-09-18T02:31:35.478Z,100802.81
2023-09-18T02:34:02.067Z,100797.56
2023-09-18T02:36:28.659Z,100789.34
2023-09-18T02:38:55.376Z,100786.81
2023-09-18T02:41:22.211Z,100781.31
2023-09-18T02:43:48.812Z,100782.19
2023-09-18T02:46:15.467Z,100780.47
2023-09-18T02:48:43.506Z,100773.31
2023-09-18T02:51:10.148Z,100776.25
2023-09-18T02:53:36.931Z,100770.78
2023-09-18T02:56:03.827Z,100772.69
2023-09-18T02:58:30.467Z,100761.91
2023-09-18T03:00:58.553Z,100762.97
2023-09-18T03:03:25.513Z,100761.28
2023-09-18T03:05:53.628Z,100750.53
2023-09-18T03:08:20.331Z,100755.16
2023-09-18T03:10:46.981Z,100748.19
2023-09-18T03:13:15.569Z,100746.50
2023-09-18T03:15:46.276Z,100749.25
2023-09-18T03:18:12.936Z,100753.03
2023-09-18T03:20:39.923Z,100755.75
2023-09-18T03:23:08.048Z,100751.34
2023-09-18T03:25:49.733Z,100751.34
2023-09-18T03:28:19.242Z,100744.19
2023-09-18T03:30:45.816Z,100752.19
2023-09-18T03:33:12.458Z,100742.28
2023-09-18T03:35:47.880Z,100745.88
2023-09-18T03:38:16.406Z,100744.19
2023-09-18T03:40:43.144Z,100743.13
2023-09-18T03:43:10.186Z,100738.69
2023-09-18T03:45:36.783Z,100741.44
2023-09-18T03:48:03.873Z,100733.22
2023-09-18T03:50:30.540Z,100735.97
2023-09-18T03:52:57.314Z,100737.00
2023-09-18T03:55:25.343Z,100738.06
2023-09-18T03:57:53.541Z,100735.31
2023-09-18T04:00:20.216Z,100731.72
2023-09-18T04:02:46.835Z,100728.13
2023-09-18T04:05:13.807Z,100721.00
2023-09-18T04:07:40.453Z,100712.78
2023-09-18T04:10:07.368Z,100708.34
2023-09-18T04:12:35.334Z,100708.34
2023-09-18T04:15:01.921Z,100709.38
2023-09-18T04:17:28.644Z,100705.59
2023-09-18T04:19:55.286Z,100702.88
2023-09-18T04:22:21.833Z,100701.16
2023-09-18T04:24:48.405Z,100692.94
2023-09-18T04:27:14.961Z,100698.44
2023-09-18T04:29:45.314Z,100695.69
2023-09-18T04:32:11.987Z,100693.19
2023-09-18T04:34:38.629Z,100690.44
2023-09-18T04:37:05.291Z,100683.25
2023-09-18T04:39:31.889Z,100688.94
2023-09-18T04:41:58.466Z,100680.72
2023-09-18T04:44:25.092Z,100687.22
2023-09-18T04:46:53.045Z,100694.41
2023-09-18T04:49:19.699Z,100687.22
2023-09-18T04:51:46.282Z,100692.72
2023-09-18T04:54:12.850Z,100686.38
2023-09-18T04:56:39.493Z,100682.84
2023-09-18T04:59:06.119Z,100686.38
2023-09-18T05:01:32.784Z,100686.38
2023-09-18T05:04:00.853Z,100674.63
2023-09-18T05:06:27.615Z,100669.13
2023-09-18T05:08:54.555Z,100669.13
2023-09-18T05:11:21.420Z,100668.06
2023-09-18T05:13:48.017Z,100659.84
2023-09-18T05:16:14.626Z,100657.75
2023-09-18T05:18:41.302Z,100663.03
2023-09-18T05:21:10.158Z,100653.56
2023-09-18T05:23:36.864Z,100658.00
2023-09-18T05:26:03.654Z,100666.63
2023-09-18T05:28:30.305Z,100663.69
2023-09-18T05:30:56.989Z,100662.25
2023-09-18T05:33:23.688Z,100655.28
2023-09-18T05:35:50.296Z,100655.72
2023-09-18T05:38:18.550Z,100652.34
2023-09-18T05:40:45.366Z,100645.41
2023-09-18T05:43:12.149Z,100639.28
2023-09-18T05:45:38.911Z,100638.66
2023-09-18T05:48:05.986Z,100628.81
2023-09-18T05:50:33.629Z,100627.94
2023-09-18T05:53:00.523Z,100631.56
2023-09-18T05:55:28.713Z,100623.75
2023-09-18T05:57:55.552Z,100619.28
2023-09-18T06:00:22.321Z,100619.50
2023-09-18T06:02:49.122Z,100617.19
2023-09-18T06:05:15.841Z,100616.34
2023-09-18T06:07:42.968Z,100614.88
2023-09-18T06:10:10.312Z,100616.97
2023-09-18T06:12:40.002Z,100611.69
2023-09-18T06:15:07.502Z,100611.06
2023-09-18T06:17:34.238Z,100608.50
2023-09-18T06:20:00.864Z,100602.16
2023-09-18T06:22:27.507Z,100600.47
2023-09-18T06:24:54.072Z,100592.44
2023-09-18T06:27:20.745Z,100592.00
2023-09-18T06:29:48.735Z,100588.59
2023-09-18T06:32:15.458Z,100583.34
2023-09-18T06:34:42.048Z,100576.34
2023-09-18T06:37:08.693Z,100576.56
2023-09-18T06:39:35.271Z,100575.44
2023-09-18T06:42:01.943Z,100577.09
2023-09-18T06:44:28.559Z,100574.94
2023-09-18T06:46:56.623Z,100567.28
2023-09-18T06:49:23.307Z,100558.56
2023-09-18T06:51:49.851Z,100564.66
2023-09-18T06:54:16.410Z,100557.81
2023-09-18T06:56:43.177Z,100543.81
2023-09-18T06:59:09.965Z,100541.47
2023-09-18T07:01:36.592Z,100533.78
2023-09-18T07:04:05.320Z,100519.13
2023-09-18T07:06:31.940Z,100522.00
2023-09-18T07:08:58.609Z,100528.88
2023-09-18T07:11:26.276Z,100523.72
2023-09-18T07:13:53.156Z,100521.25
2023-09-18T07:16:19.822Z,100519.06
2023-09-18T07:18:46.530Z,100519.59
2023-09-18T07:21:14.537Z,100519.31
2023-09-18T07:23:41.497Z,100515.19
2023-09-18T07:26:08.110Z,100518.72
2023-09-18T07:28:34.710Z,100517.56
2023-09-18T07:31:06.368Z,100505.38
2023-09-18T07:33:33.103Z,100507.81
2023-09-18T07:35:59.786Z,100508.56
2023-09-18T07:38:27.792Z,100511.00
2023-09-18T07:40:57.848Z,100506.00
2023-09-18T07:43:25.900Z,100501.00
2023-09-18T07:45:54.174Z,100499.63
2023-09-18T07:48:21.124Z,100492.34
2023-09-18T07:50:47.859Z,100499.44
2023-09-18T07:53:14.511Z,100489.13
2023-09-18T07:55:42.463Z,100490.09
2023-09-18T07:58:09.084Z,100483.41
2023-09-18T08:00:35.662Z,100481.59
2023-09-18T08:03:02.442Z,100470.72
2023-09-18T08:05:29.326Z,100470.56
2023-09-18T08:07:56.020Z,100472.38
2023-09-18T08:10:22.791Z,100472.75
2023-09-18T08:12:50.769Z,100469.84
2023-09-18T08:15:17.366Z,100471.66
2023-09-18T08:17:44.083Z,100474.06
2023-09-18T08:20:11.432Z,100470.38
2023-09-18T08:22:38.024Z,100472.75
2023-09-18T08:25:05.722Z,100469.84
2023-09-18T08:27:32.328Z,100481.63
2023-09-18T08:30:00.649Z,100475.94
2023-09-18T08:32:27.381Z,100471.38
2023-09-18T08:34:55.542Z,100464.63
2023-09-18T08:37:22.324Z,100459.22
2023-09-18T08:39:48.894Z,100461.84
2023-09-18T08:42:16.965Z,100460.84
2023-09-18T08:44:49.261Z,100446.66
2023-09-18T08:47:18.954Z,100449.03
2023-09-18T08:49:46.873Z,100450.56
2023-09-18T08:52:14.912Z,100447.41
2023-09-18T08:54:41.529Z,100437.63
2023-09-18T08:57:08.907Z,100425.06
2023-09-18T08:59:36.689Z,100425.50
2023-09-18T09:02:03.371Z,100420.38
2023-09-18T09:04:31.465Z,100413.09
2023-09-18T09:06:58.124Z,100404.97
2023-09-18T09:09:24.709Z,100410.91
2023-09-18T09:11:52.183Z,100408.78
2023-09-18T09:14:19.417Z,100410.03
2023-09-18T09:16:49.539Z,100404.91
2023-09-18T09:19:16.968Z,100403.66
2023-09-18T09:21:45.624Z,100399.31
2023-09-18T09:24:12.601Z,100402.25
2023-09-18T09:26:40.333Z,100402.09
2023-09-18T09:29:16.143Z,100401.88
2023-09-18T09:31:42.749Z,100411.41
2023-09-18T09:34:09.519Z,100394.91
2023-09-18T09:36:36.106Z,100388.91
2023-09-18T09:39:04.440Z,100390.63
2023-09-18T09:41:32.511Z,100385.13
2023-09-18T09:43:59.462Z,100379.09
2023-09-18T09:46:26.474Z,100375.25
2023-09-18T09:49:00.660Z,100379.25
2023-09-18T09:51:27.244Z,100366.59
2023-09-18T09:53:53.921Z,100352.81
2023-09-18T09:56:21.987Z,100353.69
2023-09-18T09:59:01.248Z,100348.22
2023-09-18T10:01:28.416Z,100353.31
2023-09-18T10:03:55.936Z,100340.94
2023-09-18T10:06:23.397Z,100331.59
2023-09-18T10:08:50.400Z,100326.63
2023-09-18T10:11:18.289Z,100335.00
2023-09-18T10:13:52.885Z,100346.13
2023-09-18T10:16:21.985Z,100358.91
2023-09-18T10:19:01.715Z,100360.06
2023-09-18T10:21:34.515Z,100367.59
2023-09-18T10:24:08.589Z,100369.59
2023-09-18T10:26:42.131Z,100377.38
2023-09-18T10:29:11.986Z,100382.41
2023-09-18T10:31:39.823Z,100390.75
2023-09-18T10:34:07.198Z,100388.53
2023-09-18T10:36:35.718Z,100389.38
2023-09-18T10:39:03.161Z,100382.69
2023-09-18T10:41:30.134Z,100379.88
2023-09-18T10:43:59.305Z,100371.78
2023-09-18T10:46:28.211Z,100368.16
2023-09-18T10:48:55.950Z,100350.66
2023-09-18T10:51:23.500Z,100358.13
2023-09-18T10:53:50.360Z,100354.28
2023-09-18T10:56:17.215Z,100358.72
2023-09-18T10:58:44.729Z,100374.53
2023-09-18T11:01:12.884Z,100377.03
2023-09-18T11:03:41.279Z,100374.22
2023-09-18T11:06:11.582Z,100382.50
2023-09-18T11:08:45.637Z,100388.31
2023-09-18T11:11:13.383Z,100386.09
2023-09-18T11:13:41.997Z,100381.38
2023-09-18T11:16:21.359Z,100381.94
2023-09-18T11:18:51.788Z,100380.56
2023-09-18T11:21:19.033Z,100378.63
2023-09-18T11:23:45.765Z,100380.28
2023-09-18T11:26:12.596Z,100366.69
2023-09-18T11:28:39.699Z,100365.03
2023-09-18T11:31:06.787Z,100371.97
2023-09-18T11:33:35.482Z,100364.69
2023-09-18T11:36:09.188Z,100360.78
2023-09-18T11:38:48.479Z,100357.97
2023-09-18T11:41:25.352Z,100360.44
2023-09-18T11:43:52.398Z,100357.38
2023-09-18T11:46:20.286Z,100351.50
2023-09-18T11:48:48.605Z,100346.50
2023-09-18T11:51:23.020Z,100335.41
2023-09-18T11:53:53.037Z,100342.31
2023-09-18T11:56:19.910Z,100350.63
2023-09-18T11:58:47.335Z,100348.19
2023-09-18T12:01:15.623Z,100366.56
2023-09-18T12:03:43.351Z,100367.78
2023-09-18T12:06:10.980Z,100352.63
2023-09-18T12:08:39.152Z,100348.50
2023-09-18T12:11:07.137Z,100339.41
2023-09-18T12:13:34.219Z,100327.78
2023-09-18T12:16:02.336Z,100341.97
2023-09-18T12:18:30.232Z,100336.94
2023-09-18T12:20:58.084Z,100339.75
2023-09-18T12:23:24.766Z,100320.53
2023-09-18T12:26:00.217Z,100324.69
2023-09-18T12:28:27.059Z,100337.41
2023-09-18T12:30:53.624Z,100336.53
2023-09-18T12:33:20.359Z,100329.81
2023-09-18T12:35:47.263Z,100335.63
2023-09-18T12:38:18.548Z,100330.59
2023-09-18T12:40:45.377Z,100351.69
2023-09-18T12:43:14.517Z,100359.13
2023-09-18T12:45:41.609Z,100341.63
2023-09-18T12:48:08.836Z,100340.47
2023-09-18T12:50:35.727Z,100348.25
2023-09-18T12:53:13.256Z,100355.44
2023-09-18T12:55:40.607Z,100355.41
2023-09-18T12:58:07.394Z,100350.88
2023-09-18T13:00:36.180Z,100352.53
2023-09-18T13:03:03.486Z,100348.63
2023-09-18T13:05:30.313Z,100343.59
2023-09-18T13:07:57.086Z,100336.38
2023-09-18T13:10:26.388Z,100343.56
2023-09-18T13:12:55.752Z,100347.97
2023-09-18T13:15:26.978Z,100337.38
2023-09-18T13:17:55.325Z,100337.38
2023-09-18T13:20:24.299Z,100326.53
2023-09-18T13:22:51.834Z,100323.19
2023-09-18T13:25:21.755Z,100326.50
2023-09-18T13:27:48.620Z,100330.66
2023-09-18T13:30:15.276Z,100329.75
2023-09-18T13:32:43.043Z,100324.41
2023-09-18T13:35:11.727Z,100308.03
2023-09-18T13:37:39.224Z,100303.53
2023-09-18T13:40:06.832Z,100294.81
2023-09-18T13:42:33.510Z,100291.44
2023-09-18T13:45:00.527Z,100285.84
2023-09-18T13:47:27.608Z,100284.72
2023-09-18T13:49:54.261Z,100284.97
2023-09-18T13:52:22.221Z,100288.28
2023-09-18T13:54:49.876Z,100297.97
2023-09-18T13:57:16.647Z,100286.28
2023-09-18T13:59:43.268Z,100292.91
2023-09-18T14:02:09.865Z,100280.19
2023-09-18T14:04:36.411Z,100273.81
2023-09-18T14:07:03.068Z,100285.97
2023-09-18T14:09:31.082Z,100290.44
2023-09-18T14:11:57.718Z,100298.47
2023-09-18T14:14:24.388Z,100299.03
2023-09-18T14:16:51.027Z,100322.88
2023-09-18T14:19:17.700Z,100309.59
2023-09-18T14:21:44.674Z,100318.50
2023-09-18T14:24:11.312Z,100319.63
2023-09-18T14:26:39.360Z,100320.78
2023-09-18T14:29:05.942Z,100311.69
2023-09-18T14:31:32.499Z,100309.75
2023-09-18T14:33:59.081Z,100307.53
2023-09-18T14:36:25.683Z,100302.28
2023-09-18T14:38:52.339Z,100299.75
2023-09-18T14:41:19.075Z,100303.06
2023-09-18T14:43:47.238Z,100305.53
2023-09-18T14:46:14.352Z,100299.66
2023-09-18T14:48:40.975Z,100303.22
2023-09-18T14:51:07.582Z,100307.09
2023-09-18T14:53:34.233Z,100304.28
2023-09-18T14:56:01.065Z,100312.00
2023-09-18T14:58:27.782Z,100316.69
2023-09-18T15:00:55.804Z,100314.22
2023-09-18T15:03:22.510Z,100313.91
2023-09-18T15:05:49.190Z,100316.09
2023-09-18T15:08:15.779Z,100313.56
2023-09-18T15:10:42.352Z,100313.00
2023-09-18T15:13:08.950Z,100316.03
2023-09-18T15:15:35.475Z,100315.13
2023-09-18T15:18:03.868Z,100318.66
2023-09-18T15:20:30.537Z,100319.19
2023-09-18T15:22:57.189Z,100320.56
2023-09-18T15:25:23.926Z,100320.47
2023-09-18T15:27:50.726Z,100324.56
2023-09-18T15:30:17.420Z,100320.09
2023-09-18T15:32:49.003Z,100321.09
2023-09-18T15:35:17.232Z,100327.16
2023-09-18T15:37:44.422Z,100326.00
2023-09-18T15:40:12.007Z,100332.31
2023-09-18T15:42:38.572Z,100331.41
2023-09-18T15:45:07.676Z,100324.72
2023-09-18T15:47:34.359Z,100332.38
2023-09-18T15:50:01.045Z,100337.81
2023-09-18T15:52:28.959Z,100342.44
2023-09-18T15:54:55.526Z,100340.44
2023-09-18T15:57:22.143Z,100346.50
2023-09-18T15:59:48.958Z,100341.34
2023-09-18T16:02:15.531Z,100347.88
2023-09-18T16:04:42.235Z,100359.97
2023-09-18T16:07:08.860Z,100356.44
2023-09-18T16:09:36.726Z,100355.78
2023-09-18T16:12:03.597Z,100363.91
2023-09-18T16:14:30.287Z,100357.59
2023-09-18T16:16:56.906Z,100347.47
2023-09-18T16:19:24.017Z,100358.06
2023-09-18T16:21:50.811Z,100345.75
2023-09-18T16:24:17.467Z,100363.06
2023-09-18T16:26:45.453Z,100356.81
2023-09-18T16:29:12.089Z,100358.56
2023-09-18T16:31:38.694Z,100362.56
2023-09-18T16:34:05.523Z,100347.59
2023-09-18T16:36:32.075Z,100334.75
2023-09-18T16:38:58.770Z,100314.25
2023-09-18T16:41:25.472Z,100315.56
2023-09-18T16:43:53.516Z,100339.22
2023-09-18T16:46:20.259Z,100355.94
2023-09-18T16:48:46.904Z,100351.34
2023-09-18T16:51:13.653Z,100347.88
2023-09-18T16:53:40.477Z,100352.72
2023-09-18T16:56:07.750Z,100330.19
2023-09-18T16:58:34.431Z,100343.59
2023-09-18T17:01:02.404Z,100342.41
2023-09-18T17:03:29.068Z,100349.00
2023-09-18T17:05:55.889Z,100346.72
2023-09-18T17:08:22.592Z,100340.63
2023-09-18T17:10:49.223Z,100337.50
2023-09-18T17:13:15.745Z,100340.75
2023-09-18T17:15:42.339Z,100341.81
2023-09-18T17:18:10.423Z,100333.19
2023-09-18T17:20:37.233Z,100328.75
2023-09-18T17:23:04.230Z,100322.03
2023-09-18T17:25:30.826Z,100317.03
2023-09-18T17:27:57.397Z,100304.31
2023-09-18T17:30:23.951Z,100303.72
2023-09-18T17:32:50.630Z,100301.44
2023-09-18T17:35:18.664Z,100296.41
2023-09-18T17:37:45.242Z,100296.06
2023-09-18T17:40:11.963Z,100290.19
2023-09-18T17:42:38.580Z,100292.34
2023-09-18T17:45:06.739Z,100290.88
2023-09-18T17:47:33.443Z,100283.09
2023-09-18T17:50:00.260Z,100275.06
2023-09-18T17:52:28.196Z,100267.03
2023-09-18T17:54:54.806Z,100275.56
2023-09-18T17:57:21.578Z,100288.72
2023-09-18T17:59:48.868Z,100298.06
2023-09-18T18:02:15.689Z,100304.91
2023-09-18T18:04:42.517Z,100306.19
2023-09-18T18:07:09.152Z,100307.53
2023-09-18T18:09:37.172Z,100313.25
2023-09-18T18:12:04.147Z,100317.34
2023-09-18T18:14:32.049Z,100313.16
2023-09-18T18:16:58.638Z,100313.38
2023-09-18T18:19:25.285Z,100307.53
2023-09-18T18:21:51.877Z,100317.94
2023-09-18T18:24:18.517Z,100320.09
2023-09-18T18:26:46.616Z,100320.09
2023-09-18T18:29:13.259Z,100323.91
2023-09-18T18:31:39.902Z,100320.53
2023-09-18T18:34:06.534Z,100318.91
2023-09-18T18:36:33.140Z,100327.16
2023-09-18T18:39:00.017Z,100322.09
2023-09-18T18:41:26.717Z,100330.34
2023-09-18T18:43:54.716Z,100328.69
2023-09-18T18:46:21.482Z,100321.50
2023-09-18T18:48:48.255Z,100313.47
2023-09-18T18:51:19.638Z,100313.13
2023-09-18T18:53:49.766Z,100319.69
2023-09-18T18:56:17.805Z,100325.69
2023-09-18T18:58:45.652Z,100326.16
2023-09-18T19:01:14.020Z,100321.72
2023-09-18T19:03:41.193Z,100310.09
2023-09-18T19:06:08.818Z,100314.16
2023-09-18T19:08:36.709Z,100316.56
2023-09-18T19:11:04.741Z,100308.53
2023-09-18T19:13:31.537Z,100305.41
2023-09-18T19:15:58.125Z,100297.00
2023-09-18T19:18:26.580Z,100299.16
2023-09-18T19:20:53.818Z,100303.84
2023-09-18T19:23:20.871Z,100306.16
2023-09-18T19:25:49.029Z,100301.13
2023-09-18T19:28:15.725Z,100298.03
2023-09-18T19:30:42.455Z,100294.66
2023-09-18T19:33:09.143Z,100283.28
2023-09-18T19:35:37.211Z,100279.94
2023-09-18T19:38:04.225Z,100291.16
2023-09-18T19:40:30.829Z,100288.91
2023-09-18T19:42:57.397Z,100289.59
2023-09-18T19:45:24.066Z,100288.13
2023-09-18T19:47:50.705Z,100285.84
2023-09-18T19:50:17.405Z,100286.91
2023-09-18T19:52:45.381Z,100280.00
2023-09-18T19:55:11.944Z,100289.53
2023-09-18T19:57:38.532Z,100288.94
2023-09-18T20:00:06.502Z,100293.81
2023-09-18T20:02:33.335Z,100293.22
2023-09-18T20:04:59.928Z,100284.59
2023-09-18T20:07:26.597Z,100285.03
2023-09-18T20:09:54.538Z,100287.19
2023-09-18T20:12:21.237Z,100286.84
2023-09-18T20:14:49.648Z,100286.22
2023-09-18T20:17:16.337Z,100285.84
2023-09-18T20:19:42.959Z,100279.72
2023-09-18T20:22:09.537Z,100275.53
2023-09-18T20:24:36.141Z,100284.84
2023-09-18T20:27:04.511Z,100292.50
2023-09-18T20:29:32.202Z,100287.22
2023-09-18T20:31:58.828Z,100292.09
2023-09-18T20:34:25.589Z,100292.56
2023-09-18T20:36:52.665Z,100293.88
2023-09-18T20:39:19.296Z,100284.16
2023-09-18T20:41:45.914Z,100284.41
2023-09-18T20:44:14.017Z,100281.88
2023-09-18T20:46:40.624Z,100286.72
2023-09-18T20:49:07.218Z,100289.94
2023-09-18T20:51:33.975Z,100283.22
2023-09-18T20:54:00.988Z,100280.47
2023-09-18T20:56:27.790Z,100279.84
2023-09-18T20:58:55.779Z,100292.78
2023-09-18T21:01:23.781Z,100288.56
2023-09-18T21:04:02.511Z,100282.47
2023-09-18T21:06:29.158Z,100286.50
2023-09-18T21:08:55.793Z,100289.50
2023-09-18T21:11:22.432Z,100291.63
2023-09-18T21:13:49.128Z,100287.44
2023-09-18T21:16:16.938Z,100282.16
2023-09-18T21:18:45.245Z,100288.94
2023-09-18T21:21:15.606Z,100278.41
2023-09-18T21:23:42.971Z,100296.19
2023-09-18T21:26:09.557Z,100291.97
2023-09-18T21:28:36.145Z,100299.63
2023-09-18T21:31:09.341Z,100298.13
2023-09-18T21:33:35.974Z,100301.34
2023-09-18T21:36:12.166Z,100297.75
2023-09-18T21:38:38.975Z,100304.56
2023-09-18T21:41:05.648Z,100308.34
2023-09-18T21:43:32.158Z,100310.25
2023-09-18T21:45:58.744Z,100309.66
2023-09-18T21:48:25.460Z,100304.59
2023-09-18T21:50:52.191Z,100302.94
2023-09-18T21:53:20.223Z,100303.16
2023-09-18T21:55:46.849Z,100307.22
2023-09-18T21:58:13.444Z,100292.63
2023-09-18T22:00:40.072Z,100301.94
2023-09-18T22:03:06.929Z,100294.16
2023-09-18T22:05:33.789Z,100294.16
2023-09-18T22:08:00.417Z,100289.09
2023-09-18T22:10:28.349Z,100283.59
2023-09-18T22:12:54.949Z,100285.75
2023-09-18T22:15:21.665Z,100294.19
2023-09-18T22:17:48.334Z,100287.03
2023-09-18T22:20:15.152Z,100289.16
2023-09-18T22:22:41.813Z,100292.97
2023-09-18T22:25:09.388Z,100289.59
2023-09-18T22:27:37.312Z,100293.44
2023-09-18T22:30:04.576Z,100295.53
2023-09-18T22:32:31.188Z,100298.53
2023-09-18T22:34:57.798Z,100287.75
2023-09-18T22:37:24.512Z,100282.72
2023-09-18T22:39:59.633Z,100295.38
2023-09-18T22:42:25.941Z,100291.19
2023-09-18T22:45:29.955Z,100287.78
2023-09-18T22:48:34.071Z,100279.16
2023-09-18T22:51:38.442Z,100283.19
2023-09-18T22:54:04.708Z,100281.50
2023-09-18T22:56:32.595Z,100292.47
2023-09-18T22:58:59.402Z,100291.84
2023-09-18T23:01:26.514Z,100289.34
2023-09-18T23:03:53.141Z,100294.00
2023-09-18T23:06:19.727Z,100284.06
2023-09-18T23:08:46.312Z,100279.88
2023-09-18T23:11:12.897Z,100274.63
2023-09-18T23:13:40.954Z,100282.25
2023-09-18T23:16:07.812Z,100289.84
2023-09-18T23:18:34.405Z,100288.41
2023-09-18T23:21:00.978Z,100273.84
2023-09-18T23:23:27.554Z,100278.69
2023-09-18T23:25:57.194Z,100268.78
2023-09-18T23:28:26.241Z,100268.16
2023-09-18T23:30:56.572Z,100262.69
2023-09-18T23:33:23.237Z,100260.16
2023-09-18T23:35:49.774Z,100254.91
2023-09-18T23:38:16.337Z,100255.97
2023-09-18T23:40:42.990Z,100258.91
2023-09-18T23:43:10.423Z,100269.03
2023-09-18T23:45:39.296Z,100258.31
2023-09-18T23:48:08.691Z,100265.06
2023-09-18T23:50:35.296Z,100257.91
2023-09-18T23:53:01.884Z,100259.19
2023-09-18T23:55:28.480Z,100260.47
2023-09-18T23:57:55.749Z,100263.44
